Time;durP1;ratioP1;P1;durP2;ratioP2;P2;SDS_P1;SDS_P2;PMS_P1;PMS_P2;Temp;Humidity;BMP_temperature;BMP_pressure;BME280_temperature;BME280_humidity;BME280_pressure;Samples;Min_cycle;Max_cycle;Signal;HPM_P1;HPM_P2
2022/03/06 00:03:08;;;;;;;3.08;2.00;;;17.90;23.40;20.30;93764.00;;;;10400704;28;45287;-59
2022/03/06 00:08:09;;;;;;;3.03;2.03;;;17.90;23.40;20.30;93754.00;;;;10400085;28;46350;-60
2022/03/06 00:13:10;;;;;;;2.90;2.10;;;17.90;23.40;20.30;93759.00;;;;10400945;28;45148;-60
2022/03/06 00:18:10;;;;;;;2.60;1.90;;;17.90;23.40;20.30;93753.00;;;;10400894;28;46257;-59
2022/03/06 00:23:11;;;;;;;2.45;1.90;;;17.80;23.40;20.30;93751.00;;;;10399573;28;46867;-60
2022/03/06 00:28:12;;;;;;;3.25;2.13;;;17.80;23.30;20.30;93738.00;;;;10399475;28;45332;-59
2022/03/06 00:33:13;;;;;;;2.83;1.92;;;17.80;23.40;20.30;93748.00;;;;10399782;28;45390;-59
2022/03/06 00:38:13;;;;;;;2.75;1.70;;;17.80;23.40;20.30;93750.00;;;;10399368;28;45370;-60
2022/03/06 00:43:15;;;;;;;2.75;1.90;;;17.80;23.50;20.30;93751.00;;;;10400776;28;45636;-58
2022/03/06 00:48:16;;;;;;;3.05;1.77;;;17.80;23.40;20.30;93752.00;;;;10399332;28;46447;-59
2022/03/06 00:53:17;;;;;;;3.00;1.80;;;17.80;23.40;20.30;93756.00;;;;10399164;28;45701;-60
2022/03/06 00:58:17;;;;;;;2.78;2.00;;;17.80;23.50;20.30;93758.00;;;;10398004;28;45232;-59
2022/03/06 01:03:20;;;;;;;2.58;2.00;;;17.80;23.40;20.30;93752.00;;;;10399018;28;45206;-59
2022/03/06 01:08:21;;;;;;;2.30;1.75;;;17.80;23.40;20.30;93738.00;;;;10397545;28;46631;-60
2022/03/06 01:13:22;;;;;;;2.63;1.75;;;17.80;23.30;20.30;93734.00;;;;10399903;28;45155;-60
2022/03/06 01:18:24;;;;;;;3.05;1.90;;;17.80;23.40;20.30;93743.00;;;;10398208;28;45163;-59
2022/03/06 01:23:25;;;;;;;2.08;1.63;;;17.80;23.40;20.30;93745.00;;;;10397676;28;45368;-60
2022/03/06 01:28:26;;;;;;;2.75;1.95;;;17.80;23.40;20.30;93727.00;;;;10396569;28;45563;-60
2022/03/06 01:33:26;;;;;;;3.67;2.00;;;17.80;23.40;20.30;93743.00;;;;10397017;28;45217;-58
2022/03/06 01:38:27;;;;;;;3.00;2.10;;;17.80;23.40;20.30;93730.00;;;;10434813;22;45669;-62
2022/03/06 01:43:28;;;;;;;3.08;2.05;;;17.80;23.40;20.30;93742.00;;;;10397165;28;45301;-62
2022/03/06 01:48:28;;;;;;;3.17;1.98;;;17.80;23.40;20.30;93740.00;;;;10398019;28;46375;-61
2022/03/06 01:53:29;;;;;;;2.70;1.92;;;17.80;23.40;20.30;93724.00;;;;10413919;28;45455;-63
2022/03/06 01:58:30;;;;;;;3.33;2.00;;;17.80;23.30;20.30;93719.00;;;;10412265;28;46289;-62
2022/03/06 02:03:30;;;;;;;2.75;2.05;;;17.80;23.30;20.30;93719.00;;;;10408446;28;46265;-62
2022/03/06 02:08:31;;;;;;;2.92;2.10;;;17.80;23.40;20.30;93699.00;;;;10397389;28;47037;-62
2022/03/06 02:13:32;;;;;;;4.00;2.08;;;17.80;23.40;20.30;93707.00;;;;10396339;28;47145;-64
2022/03/06 02:18:32;;;;;;;3.50;2.13;;;17.80;23.30;20.30;93707.00;;;;10412446;28;46504;-61
2022/03/06 02:23:33;;;;;;;3.75;2.20;;;17.80;23.30;20.30;93720.00;;;;10397518;28;45225;-62
2022/03/06 02:28:35;;;;;;;3.13;2.05;;;17.80;23.30;20.30;93720.00;;;;10397273;28;45657;-62
2022/03/06 02:33:35;;;;;;;3.10;2.17;;;17.80;23.30;20.30;93724.00;;;;10395706;28;47558;-63
2022/03/06 02:38:36;;;;;;;3.08;2.20;;;17.80;23.30;20.30;93729.00;;;;10411732;28;46466;-61
2022/03/06 02:43:37;;;;;;;2.70;1.63;;;17.80;23.30;20.30;93731.00;;;;10397039;28;45969;-63
2022/03/06 02:48:37;;;;;;;3.38;2.20;;;17.80;23.30;20.20;93726.00;;;;10412231;28;45214;-62
2022/03/06 02:53:38;;;;;;;3.03;2.05;;;17.80;23.20;20.30;93726.00;;;;10412164;28;46688;-62
2022/03/06 02:58:39;;;;;;;3.42;2.15;;;17.80;23.30;20.20;93720.00;;;;10395965;28;45553;-61
2022/03/06 03:03:43;;;;;;;2.95;2.20;;;17.80;23.20;20.30;93722.00;;;;10411895;28;45463;-62
2022/03/06 03:08:46;;;;;;;2.65;2.03;;;17.80;23.20;20.20;93724.00;;;;10410928;28;45408;-61
2022/03/06 03:13:47;;;;;;;2.42;2.00;;;17.80;23.20;20.20;93709.00;;;;10411217;28;45494;-62
2022/03/06 03:18:47;;;;;;;3.25;2.35;;;17.80;23.20;20.20;93721.00;;;;10411332;28;45297;-62
2022/03/06 03:23:48;;;;;;;4.00;2.22;;;17.80;23.10;20.20;93734.00;;;;10395584;28;45454;-62
2022/03/06 03:28:49;;;;;;;3.47;2.28;;;17.80;23.20;20.20;93721.00;;;;10410595;28;46618;-62
2022/03/06 03:33:49;;;;;;;3.40;1.98;;;17.80;23.10;20.20;93738.00;;;;10410333;28;45313;-62
2022/03/06 03:38:50;;;;;;;3.03;2.28;;;17.80;23.10;20.20;93749.00;;;;10394929;28;45689;-61
2022/03/06 03:43:52;;;;;;;3.03;2.15;;;17.80;23.10;20.20;93750.00;;;;10410365;28;45267;-62
2022/03/06 03:48:52;;;;;;;3.28;2.13;;;17.80;23.10;20.20;93752.00;;;;10410398;28;45290;-62
2022/03/06 03:53:53;;;;;;;3.13;2.33;;;17.80;23.00;20.20;93743.00;;;;10410025;28;46474;-62
2022/03/06 03:58:54;;;;;;;3.13;2.10;;;17.80;23.10;20.20;93753.00;;;;10410085;28;45318;-62
2022/03/06 04:03:55;;;;;;;3.08;2.00;;;17.70;23.00;20.20;93752.00;;;;10410200;28;45310;-61
2022/03/06 04:08:55;;;;;;;3.08;2.13;;;17.80;23.00;20.20;93766.00;;;;10394280;28;46117;-63
2022/03/06 04:13:56;;;;;;;3.00;2.03;;;17.70;23.50;20.20;93760.00;;;;10394394;28;45513;-61
2022/03/06 04:18:56;;;;;;;2.70;2.08;;;17.70;22.90;20.20;93762.00;;;;10394084;28;45262;-62
2022/03/06 04:23:57;;;;;;;3.30;2.17;;;17.70;22.90;20.20;93771.00;;;;10394346;28;45168;-61
2022/03/06 04:28:58;;;;;;;3.50;2.13;;;17.70;22.90;20.20;93761.00;;;;10394229;28;46716;-62
2022/03/06 04:33:58;;;;;;;3.00;2.10;;;17.80;23.00;20.20;93773.00;;;;10409375;28;45185;-62
2022/03/06 04:38:59;;;;;;;2.95;2.17;;;17.70;22.90;20.20;93767.00;;;;10392348;28;47046;-62
2022/03/06 04:44:00;;;;;;;3.60;2.25;;;17.70;22.80;20.20;93754.00;;;;10396816;28;47961;-63
2022/03/06 04:49:01;;;;;;;3.88;2.20;;;17.70;22.90;20.20;93760.00;;;;10400560;28;46010;-61
2022/03/06 04:54:02;;;;;;;3.30;2.30;;;17.70;22.90;20.20;93768.00;;;;10398998;28;46899;-62
2022/03/06 04:59:03;;;;;;;3.25;2.15;;;17.70;22.90;20.20;93773.00;;;;10399644;28;45304;-62
2022/03/06 05:04:04;;;;;;;2.85;2.20;;;17.70;22.80;20.20;93763.00;;;;10414754;28;46494;-62
2022/03/06 05:09:05;;;;;;;2.90;2.25;;;17.70;22.80;20.20;93772.00;;;;10398641;28;46808;-61
2022/03/06 05:14:06;;;;;;;3.38;2.35;;;17.70;22.90;20.20;93779.00;;;;10415177;28;45346;-62
2022/03/06 05:19:06;;;;;;;3.28;2.25;;;17.70;22.90;20.20;93764.00;;;;10398055;28;47448;-62
2022/03/06 05:24:07;;;;;;;2.95;2.08;;;17.70;22.90;20.20;93769.00;;;;10397922;28;48372;-62
2022/03/06 05:29:08;;;;;;;2.38;2.00;;;17.70;23.10;20.20;93768.00;;;;10399413;28;45347;-63
2022/03/06 05:34:08;;;;;;;3.15;2.25;;;17.80;23.10;20.30;93777.00;;;;10398837;28;45297;-62
2022/03/06 05:39:09;;;;;;;3.08;1.95;;;17.80;23.10;20.30;93781.00;;;;10398877;28;45448;-61
2022/03/06 05:44:10;;;;;;;3.20;2.22;;;17.80;23.10;20.30;93784.00;;;;10414348;28;45357;-61
2022/03/06 05:49:13;;;;;;;3.80;2.17;;;17.80;23.10;20.30;93782.00;;;;10414263;28;45518;-62
2022/03/06 05:54:14;;;;;;;3.35;2.38;;;17.90;23.20;20.30;93789.00;;;;10412771;28;45208;-62
2022/03/06 05:59:14;;;;;;;4.20;2.40;;;17.90;23.10;20.30;93786.00;;;;10413535;28;45195;-62
2022/03/06 06:04:15;;;;;;;2.95;2.20;;;17.90;22.90;20.30;93787.00;;;;10398089;28;45217;-63
2022/03/06 06:09:16;;;;;;;3.70;2.30;;;17.90;22.90;20.30;93790.00;;;;10397984;28;45405;-62
2022/03/06 06:14:17;;;;;;;3.05;2.30;;;17.90;22.80;20.30;93799.00;;;;10397587;28;45348;-61
2022/03/06 06:19:17;;;;;;;2.97;2.30;;;17.80;22.70;20.30;93793.00;;;;10396117;28;46888;-63
2022/03/06 06:24:18;;;;;;;3.17;2.60;;;17.80;22.70;20.30;93792.00;;;;10413099;28;45487;-62
2022/03/06 06:29:19;;;;;;;3.35;2.28;;;17.80;22.70;20.20;93801.00;;;;10412882;28;46030;-61
2022/03/06 06:34:20;;;;;;;4.07;2.30;;;17.80;22.80;20.30;93803.00;;;;10396898;28;45590;-62
2022/03/06 06:39:21;;;;;;;3.38;2.28;;;17.80;22.80;20.30;93805.00;;;;10395358;28;47431;-62
2022/03/06 06:44:22;;;;;;;3.10;2.38;;;17.80;22.90;20.30;93814.00;;;;10411717;28;45307;-62
2022/03/06 06:49:22;;;;;;;2.75;2.15;;;17.80;22.90;20.30;93799.00;;;;10411845;28;45197;-62
2022/03/06 06:54:23;;;;;;;3.00;2.30;;;17.80;23.00;20.30;93807.00;;;;10395961;28;45394;-62
2022/03/06 06:59:24;;;;;;;2.70;1.98;;;17.80;23.00;20.30;93814.00;;;;10395403;28;45518;-61
2022/03/06 07:04:24;;;;;;;3.75;2.17;;;17.90;23.10;20.30;93821.00;;;;10411141;28;46545;-62
2022/03/06 07:09:25;;;;;;;2.90;2.00;;;17.90;23.10;20.30;93818.00;;;;10410754;28;45566;-62
2022/03/06 07:14:25;;;;;;;3.42;2.28;;;17.90;23.10;20.30;93814.00;;;;10393360;28;48311;-62
2022/03/06 07:19:26;;;;;;;3.20;2.15;;;17.90;23.10;20.30;93829.00;;;;10395573;28;45334;-63
2022/03/06 07:24:27;;;;;;;3.03;2.25;;;17.90;23.00;20.30;93813.00;;;;10410707;28;45385;-61
2022/03/06 07:29:28;;;;;;;2.78;2.10;;;17.90;23.00;20.30;93811.00;;;;10395400;28;45494;-62
2022/03/06 07:34:28;;;;;;;3.47;2.50;;;17.80;22.90;20.30;93823.00;;;;10395733;28;45473;-63
2022/03/06 07:39:29;;;;;;;2.47;2.00;;;17.90;22.90;20.30;93835.00;;;;10394664;28;45539;-62
2022/03/06 07:44:30;;;;;;;2.88;2.33;;;17.80;22.90;20.30;93836.00;;;;10397845;28;46999;-62
2022/03/06 07:49:30;;;;;;;2.80;2.20;;;17.80;23.10;20.30;93829.00;;;;10413971;28;46317;-62
2022/03/06 07:54:31;;;;;;;3.42;2.53;;;17.80;23.00;20.30;93825.00;;;;10395536;28;45180;-61
2022/03/06 07:59:32;;;;;;;3.88;2.20;;;17.80;23.10;20.30;93836.00;;;;10409679;28;47352;-61
2022/03/06 08:04:32;;;;;;;2.97;2.20;;;17.90;23.20;20.30;93838.00;;;;10393339;28;45407;-61
2022/03/06 08:09:33;;;;;;;3.33;2.10;;;17.90;23.20;20.30;93854.00;;;;10409753;28;46239;-61
2022/03/06 08:14:34;;;;;;;3.50;2.20;;;17.90;23.20;20.30;93856.00;;;;10394444;28;45530;-61
2022/03/06 08:19:34;;;;;;;3.30;2.05;;;17.90;23.30;20.30;93840.00;;;;10399923;28;46138;-61
2022/03/06 08:24:35;;;;;;;3.47;2.20;;;17.90;23.20;20.30;93857.00;;;;10400796;28;46204;-62
2022/03/06 08:29:36;;;;;;;3.13;2.20;;;17.90;23.30;20.30;93857.00;;;;10390094;28;45448;-61
2022/03/06 08:34:37;;;;;;;3.55;2.10;;;17.90;23.30;20.30;93851.00;;;;10378480;28;45218;-61
2022/03/06 08:39:38;;;;;;;4.00;1.98;;;17.90;23.30;20.30;93847.00;;;;10401332;28;45385;-61
2022/03/06 08:44:38;;;;;;;3.45;2.33;;;17.90;23.20;20.30;93859.00;;;;10398895;28;46205;-62
2022/03/06 08:49:39;;;;;;;2.78;2.28;;;17.90;23.30;20.30;93865.00;;;;10415938;28;45303;-61
2022/03/06 08:54:40;;;;;;;4.00;2.30;;;17.90;23.40;20.30;93858.00;;;;10399917;28;45560;-61
2022/03/06 08:59:40;;;;;;;2.95;2.05;;;17.90;23.40;20.30;93858.00;;;;10396754;28;47359;-61
2022/03/06 09:04:41;;;;;;;4.35;2.60;;;17.80;23.30;20.30;93851.00;;;;10391859;28;45540;-61
2022/03/06 09:09:42;;;;;;;3.28;2.35;;;17.80;23.10;20.30;93846.00;;;;10399389;28;46552;-61
2022/03/06 09:14:42;;;;;;;4.65;3.10;;;17.90;22.90;20.40;93853.00;;;;10397963;28;47088;-62
2022/03/06 09:19:43;;;;;;;4.57;2.90;;;17.90;22.90;20.40;93857.00;;;;10411545;28;45358;-62
2022/03/06 09:24:44;;;;;;;4.03;2.83;;;17.90;23.10;20.40;93851.00;;;;10395321;28;46688;-62
2022/03/06 09:29:44;;;;;;;4.07;3.15;;;17.90;23.20;20.40;93861.00;;;;10396186;28;47457;-62
2022/03/06 09:34:45;;;;;;;3.60;2.80;;;17.90;23.10;20.40;93838.00;;;;10398196;28;45166;-61
2022/03/06 09:39:46;;;;;;;4.85;2.63;;;17.90;23.20;20.40;93853.00;;;;10398332;28;45611;-61
2022/03/06 09:44:48;;;;;;;4.32;2.60;;;17.90;23.20;20.40;93859.00;;;;10398168;28;45936;-62
2022/03/06 09:49:49;;;;;;;4.22;2.58;;;17.90;23.40;20.40;93856.00;;;;10413753;28;46730;-62
2022/03/06 09:54:49;;;;;;;3.38;2.30;;;17.90;23.40;20.40;93853.00;;;;10396695;28;47421;-61
2022/03/06 09:59:50;;;;;;;4.50;2.08;;;17.90;23.50;20.40;93840.00;;;;10396499;28;47548;-61
2022/03/06 10:04:52;;;;;;;2.78;2.08;;;17.90;23.50;20.40;93858.00;;;;10413401;28;45320;-61
2022/03/06 10:09:55;;;;;;;3.53;2.45;;;18.00;23.70;20.40;93878.00;;;;10413085;28;45237;-62
2022/03/06 10:14:58;;;;;;;3.47;2.38;;;18.00;23.70;20.40;93873.00;;;;10412561;28;45204;-62
2022/03/06 10:20:09;;;;;;;2.83;1.95;;;18.00;23.80;20.40;93870.00;;;;10412660;28;46051;-62
2022/03/06 10:25:20;;;;;;;3.50;2.25;;;18.00;23.90;20.50;93878.00;;;;10413013;28;45224;-65
2022/03/06 10:30:32;;;;;;;2.85;1.90;;;18.00;24.00;20.50;93863.00;;;;10397388;28;45505;-60
2022/03/06 10:35:40;;;;;;;3.25;2.05;;;18.00;24.70;20.50;93868.00;;;;10394398;28;48086;-60
2022/03/06 10:40:40;;;;;;;2.88;2.00;;;18.10;24.40;20.50;93866.00;;;;10394437;28;47612;-61
2022/03/06 10:45:41;;;;;;;3.72;2.00;;;18.10;24.50;20.60;93863.00;;;;10395916;28;45227;-61
2022/03/06 10:50:42;;;;;;;3.50;2.03;;;18.00;24.50;20.60;93869.00;;;;10395370;28;45249;-60
2022/03/06 10:55:43;;;;;;;3.22;2.10;;;18.10;24.50;20.60;93863.00;;;;10394277;28;47083;-61
2022/03/06 11:00:45;;;;;;;3.65;1.98;;;18.10;24.50;20.60;93867.00;;;;10412619;28;45368;-61
2022/03/06 11:05:47;;;;;;;2.80;2.03;;;18.10;24.40;20.60;93868.00;;;;10390617;28;47748;-60
2022/03/06 11:10:49;;;;;;;4.53;2.30;;;18.10;24.40;20.60;93870.00;;;;10410254;28;45469;-60
2022/03/06 11:15:51;;;;;;;3.35;2.03;;;18.20;24.40;20.60;93859.00;;;;10410690;28;46352;-61
2022/03/06 11:20:54;;;;;;;2.92;1.92;;;18.10;24.40;20.60;93869.00;;;;10395036;28;46174;-60
2022/03/06 11:26:13;;;;;;;2.17;1.67;;;18.20;24.40;20.60;93869.00;;;;10427763;28;45296;-61
2022/03/06 11:31:14;;;;;;;5.70;1.95;;;18.10;24.30;20.60;93865.00;;;;10394949;28;45216;-60
2022/03/06 11:36:22;;;;;;;3.15;2.08;;;18.20;24.40;20.60;93860.00;;;;10392789;28;47507;-60
2022/03/06 11:41:27;;;;;;;3.63;2.30;;;18.20;24.30;20.60;93860.00;;;;10410334;28;46581;-59
2022/03/06 11:46:28;;;;;;;3.55;2.15;;;18.20;24.30;20.60;93858.00;;;;10392930;28;47094;-60
2022/03/06 11:51:30;;;;;;;2.80;1.95;;;18.20;24.30;20.70;93853.00;;;;10408886;28;46218;-60
2022/03/06 11:56:39;;;;;;;2.53;2.10;;;18.20;24.30;20.70;93832.00;;;;10392215;28;47174;-59
2022/03/06 12:01:42;;;;;;;3.38;1.95;;;18.20;24.30;20.70;93847.00;;;;10395253;28;45219;-60
2022/03/06 12:06:47;;;;;;;2.92;1.95;;;18.20;24.20;20.70;93845.00;;;;10434045;28;45197;-61
2022/03/06 12:11:51;;;;;;;2.47;1.95;;;18.20;24.20;20.70;93845.00;;;;10434947;28;46555;-61
2022/03/06 12:17:01;;;;;;;4.65;1.83;;;18.20;24.20;20.70;93852.00;;;;10435109;28;45129;-60
2022/03/06 12:22:08;;;;;;;2.40;1.80;;;18.20;24.10;20.70;93846.00;;;;10435364;28;45267;-61
2022/03/06 12:27:25;;;;;;;2.92;2.10;;;18.30;24.20;20.80;93827.00;;;;10434773;28;46243;-61
2022/03/06 12:32:29;;;;;;;2.30;1.80;;;18.30;24.20;20.80;93827.00;;;;10416852;28;46679;-60
2022/03/06 12:37:40;;;;;;;2.80;1.88;;;18.30;24.10;20.70;93837.00;;;;10433811;28;45405;-60
2022/03/06 12:42:43;;;;;;;2.38;1.80;;;18.20;24.00;20.70;93814.00;;;;10434833;28;46067;-61
2022/03/06 12:47:46;;;;;;;2.60;1.85;;;18.30;24.10;20.70;93814.00;;;;10434305;28;46620;-60
2022/03/06 12:52:49;;;;;;;2.33;1.80;;;18.30;24.00;20.70;93821.00;;;;10433095;28;45664;-61
2022/03/06 12:57:59;;;;;;;3.17;2.08;;;18.30;24.00;20.70;93820.00;;;;10432902;28;45198;-61
2022/03/06 13:03:05;;;;;;;2.95;1.90;;;18.20;23.90;20.70;93814.00;;;;10435678;28;45622;-61
2022/03/06 13:08:07;;;;;;;3.00;2.00;;;18.20;23.90;20.80;93822.00;;;;10439572;28;45337;-60
2022/03/06 13:13:08;;;;;;;3.17;2.10;;;18.20;23.90;20.70;93825.00;;;;10439895;28;46296;-60
2022/03/06 13:18:08;;;;;;;3.08;2.10;;;18.30;23.90;20.80;93825.00;;;;10439479;28;45185;-61
2022/03/06 13:23:20;;;;;;;2.78;1.92;;;18.20;23.80;20.80;93821.00;;;;10440622;28;46056;-60
2022/03/06 13:28:21;;;;;;;2.55;1.90;;;18.30;24.10;20.80;93804.00;;;;10438752;28;45182;-60
2022/03/06 13:33:21;;;;;;;2.95;2.20;;;18.30;23.80;20.80;93809.00;;;;10439525;28;46184;-60
2022/03/06 13:38:29;;;;;;;2.47;1.90;;;18.30;23.70;20.80;93789.00;;;;10439805;28;46116;-60
2022/03/06 13:43:47;;;;;;;3.10;2.05;;;18.30;23.70;20.80;93802.00;;;;10438117;28;46421;-60
2022/03/06 13:48:48;;;;;;;3.03;1.95;;;18.30;23.70;20.80;93807.00;;;;10438340;28;46023;-60
2022/03/06 13:53:57;;;;;;;2.85;1.92;;;18.30;23.70;20.80;93802.00;;;;10439629;28;45100;-60
2022/03/06 13:58:58;;;;;;;2.88;2.15;;;18.30;23.60;20.80;93805.00;;;;10437672;28;46576;-60
2022/03/06 14:04:06;;;;;;;3.15;2.13;;;18.30;23.60;20.80;93814.00;;;;10438060;28;45430;-60
2022/03/06 14:09:23;;;;;;;3.00;2.22;;;18.30;23.60;20.80;93813.00;;;;10420502;28;47539;-60
2022/03/06 14:14:34;;;;;;;2.90;2.15;;;18.30;23.60;20.80;93816.00;;;;10437994;28;45198;-60
2022/03/06 14:19:35;;;;;;;2.78;2.00;;;18.30;23.60;20.80;93804.00;;;;10438657;28;45167;-60
2022/03/06 14:24:36;;;;;;;2.70;2.03;;;18.30;23.60;20.80;93808.00;;;;10437374;28;45344;-61
2022/03/06 14:29:36;;;;;;;3.28;1.80;;;18.30;23.60;20.80;93814.00;;;;10438592;28;46466;-60
2022/03/06 14:34:37;;;;;;;3.05;1.92;;;18.20;23.60;20.80;93814.00;;;;10436144;28;46048;-60
2022/03/06 14:39:37;;;;;;;2.67;1.92;;;18.20;23.50;20.70;93818.00;;;;10434306;28;45377;-61
2022/03/06 14:44:38;;;;;;;2.55;1.67;;;18.20;23.50;20.80;93818.00;;;;10434834;28;45950;-61
2022/03/06 14:49:39;;;;;;;2.88;2.20;;;18.30;23.60;20.80;93818.00;;;;10433352;28;46300;-61
2022/03/06 14:54:39;;;;;;;2.78;1.83;;;18.30;23.60;20.80;93823.00;;;;10435519;28;45414;-61
2022/03/06 14:59:40;;;;;;;3.50;2.03;;;18.20;23.50;20.80;93821.00;;;;10434712;28;46290;-59
2022/03/06 15:04:41;;;;;;;2.70;1.90;;;18.30;23.60;20.80;93809.00;;;;10434469;28;45258;-60
2022/03/06 15:09:41;;;;;;;2.72;1.90;;;18.30;23.50;20.80;93818.00;;;;10435339;28;46466;-61
2022/03/06 15:14:42;;;;;;;4.10;2.20;;;18.30;23.60;20.80;93810.00;;;;10434722;28;47218;-60
2022/03/06 15:19:43;;;;;;;2.88;2.00;;;18.30;23.60;20.80;93805.00;;;;10423983;28;45180;-60
2022/03/06 15:24:44;;;;;;;2.88;2.00;;;18.30;23.50;20.80;93809.00;;;;10393080;28;45714;-61
2022/03/06 15:29:45;;;;;;;2.35;1.90;;;18.30;23.50;20.80;93827.00;;;;10396987;28;45272;-60
2022/03/06 15:34:45;;;;;;;2.47;1.83;;;18.30;23.50;20.80;93824.00;;;;10408514;28;46836;-60
2022/03/06 15:39:47;;;;;;;3.03;2.30;;;18.30;23.50;20.80;93817.00;;;;10403060;28;45478;-60
2022/03/06 15:44:47;;;;;;;4.03;2.58;;;18.30;23.50;20.80;93815.00;;;;10409596;28;45194;-62
2022/03/06 15:49:48;;;;;;;7.05;2.58;;;18.30;23.40;20.70;93816.00;;;;10406341;28;45344;-61
2022/03/06 15:54:49;;;;;;;5.05;2.72;;;18.30;23.50;20.70;93810.00;;;;10392229;28;45389;-60
2022/03/06 15:59:51;;;;;;;4.93;2.58;;;18.30;23.40;20.60;93827.00;;;;10387782;28;47968;-71
2022/03/06 16:04:51;;;;;;;4.75;2.92;;;18.20;22.60;20.60;93805.00;;;;10372980;28;47363;-65
2022/03/06 16:09:53;;;;;;;5.80;3.47;;;18.20;23.40;20.60;93823.00;;;;10394345;28;45340;-64
2022/03/06 16:14:53;;;;;;;5.07;3.30;;;18.20;22.20;20.60;93823.00;;;;10394341;28;45215;-63
2022/03/06 16:19:54;;;;;;;5.72;3.40;;;18.20;22.00;20.50;93808.00;;;;10409404;28;46074;-63
2022/03/06 16:24:55;;;;;;;5.90;3.95;;;18.10;21.70;20.50;93814.00;;;;10394163;28;45658;-64
2022/03/06 16:29:58;;;;;;;5.13;3.45;;;18.10;21.50;20.50;93823.00;;;;10392273;28;46905;-64
2022/03/06 16:34:59;;;;;;;4.57;3.10;;;18.10;21.30;20.40;93823.00;;;;10409187;28;45876;-64
2022/03/06 16:40:00;;;;;;;3.88;3.00;;;18.00;22.00;20.30;93833.00;;;;10398294;28;46674;-61
2022/03/06 16:45:00;;;;;;;6.40;4.18;;;17.90;22.50;20.30;93832.00;;;;10398107;28;47974;-60
2022/03/06 16:50:04;;;;;;;9.52;5.20;;;17.90;21.20;20.30;93839.00;;;;10414947;28;45434;-60
2022/03/06 16:55:06;;;;;;;16.15;6.25;;;17.90;21.20;20.30;93840.00;;;;10398183;28;47469;-61
2022/03/06 17:00:09;;;;;;;12.73;6.07;;;17.80;21.10;20.20;93826.00;;;;10400168;28;45510;-61
2022/03/06 17:05:10;;;;;;;19.90;8.40;;;17.80;20.90;20.20;93840.00;;;;10397764;28;47192;-61
2022/03/06 17:10:11;;;;;;;22.42;8.65;;;17.80;21.60;20.20;93842.00;;;;10415146;28;45229;-61
2022/03/06 17:15:11;;;;;;;20.23;8.98;;;17.80;20.80;20.20;93850.00;;;;10399273;28;46243;-61
2022/03/06 17:20:12;;;;;;;14.77;7.38;;;17.70;20.70;20.20;93851.00;;;;10398915;28;45580;-63
2022/03/06 17:25:14;;;;;;;11.43;6.32;;;17.80;20.70;20.20;93857.00;;;;10399066;28;46139;-61
2022/03/06 17:30:14;;;;;;;13.93;8.25;;;17.70;20.70;20.10;93848.00;;;;10397859;28;48348;-61
2022/03/06 17:35:15;;;;;;;15.60;7.70;;;17.70;20.70;20.10;93861.00;;;;10413654;28;45278;-61
2022/03/06 17:40:18;;;;;;;18.48;9.13;;;17.70;20.80;20.10;93848.00;;;;10414465;28;45614;-61
2022/03/06 17:45:18;;;;;;;13.85;7.30;;;17.70;20.80;20.00;93856.00;;;;10398148;28;45345;-61
2022/03/06 17:50:19;;;;;;;12.68;6.50;;;17.70;20.70;20.00;93860.00;;;;10412404;28;46516;-62
2022/03/06 17:55:20;;;;;;;12.63;6.57;;;17.60;20.60;20.00;93865.00;;;;10395591;28;48712;-61
2022/03/06 18:00:21;;;;;;;9.82;5.35;;;17.60;20.60;20.00;93877.00;;;;10398131;28;45748;-61
2022/03/06 18:05:22;;;;;;;9.32;5.13;;;17.60;20.60;19.90;93885.00;;;;10398291;28;45309;-61
2022/03/06 18:10:22;;;;;;;8.38;5.18;;;17.50;20.60;20.00;93887.00;;;;10413315;28;45168;-61
2022/03/06 18:15:23;;;;;;;6.68;4.38;;;17.60;20.70;20.00;93878.00;;;;10396504;28;47142;-61
2022/03/06 18:20:24;;;;;;;6.65;4.00;;;17.60;20.70;20.00;93895.00;;;;10397435;28;45405;-61
2022/03/06 18:25:28;;;;;;;7.05;4.20;;;17.60;20.90;20.00;93894.00;;;;10412504;28;45964;-61
2022/03/06 18:30:33;;;;;;;7.07;3.85;;;17.60;20.80;20.00;93898.00;;;;10412666;28;46082;-62
2022/03/06 18:35:34;;;;;;;5.82;3.92;;;17.70;21.20;20.00;93905.00;;;;10411144;28;45262;-61
2022/03/06 18:40:34;;;;;;;5.93;3.40;;;17.60;21.10;20.00;93900.00;;;;10395927;28;45351;-59
2022/03/06 18:45:35;;;;;;;5.40;3.42;;;17.60;21.50;20.10;93891.00;;;;10395363;28;45171;-59
2022/03/06 18:50:35;;;;;;;6.05;3.67;;;17.70;21.80;20.10;93891.00;;;;10411329;28;46331;-59
2022/03/06 18:55:36;;;;;;;4.80;3.42;;;17.70;21.90;20.10;93873.00;;;;10410841;28;45234;-60
2022/03/06 19:00:37;;;;;;;5.63;3.83;;;17.80;22.10;20.10;93890.00;;;;10410408;28;45196;-60
2022/03/06 19:05:38;;;;;;;5.05;3.63;;;17.80;22.20;20.20;93894.00;;;;10410818;28;45189;-60
2022/03/06 19:10:38;;;;;;;6.10;3.60;;;17.80;22.40;20.20;93902.00;;;;10410608;28;45207;-60
2022/03/06 19:15:39;;;;;;;5.32;3.30;;;17.80;22.30;20.20;93895.00;;;;10410159;28;46086;-60
2022/03/06 19:20:40;;;;;;;5.03;3.35;;;17.80;22.90;20.20;93900.00;;;;10410745;28;46218;-60
2022/03/06 19:25:41;;;;;;;5.18;3.22;;;17.90;22.50;20.20;93898.00;;;;10392879;28;48105;-60
2022/03/06 19:30:42;;;;;;;4.68;3.13;;;17.90;22.60;20.20;93905.00;;;;10410306;28;45327;-60
2022/03/06 19:35:42;;;;;;;5.20;3.33;;;17.90;22.60;20.20;93908.00;;;;10393345;28;47235;-61
2022/03/06 19:40:48;;;;;;;4.60;2.67;;;17.90;22.70;20.20;93891.00;;;;10395232;28;46655;-61
2022/03/06 19:45:49;;;;;;;4.95;3.00;;;17.90;22.70;20.20;93908.00;;;;10393327;28;47419;-60
2022/03/06 19:50:51;;;;;;;4.30;2.85;;;17.80;22.80;20.20;93909.00;;;;10410335;28;45206;-60
2022/03/06 19:55:52;;;;;;;5.63;2.75;;;17.80;22.80;20.20;93914.00;;;;10409966;28;45189;-60
2022/03/06 20:00:53;;;;;;;4.05;2.58;;;17.80;22.80;20.20;93912.00;;;;10393214;28;47248;-60
2022/03/06 20:05:54;;;;;;;4.82;2.90;;;17.80;22.80;20.20;93907.00;;;;10409889;28;45425;-61
2022/03/06 20:10:54;;;;;;;3.88;2.72;;;17.80;22.90;20.20;93904.00;;;;10394582;28;46611;-60
2022/03/06 20:15:55;;;;;;;4.25;2.78;;;17.80;22.90;20.20;93919.00;;;;10400575;28;45278;-60
2022/03/06 20:20:56;;;;;;;4.05;2.72;;;17.80;23.00;20.20;93914.00;;;;10417056;28;45223;-60
2022/03/06 20:25:56;;;;;;;3.97;2.67;;;17.80;23.00;20.30;93915.00;;;;10400839;28;45242;-60
2022/03/06 20:30:57;;;;;;;5.07;3.08;;;17.90;23.60;20.30;93932.00;;;;10416926;28;46277;-60
2022/03/06 20:35:58;;;;;;;4.20;2.92;;;17.90;23.00;20.30;93931.00;;;;10399326;28;46752;-60
2022/03/06 20:40:59;;;;;;;3.83;2.70;;;17.90;23.10;20.30;93946.00;;;;10400951;28;45183;-61
2022/03/06 20:46:00;;;;;;;5.10;3.00;;;17.90;23.10;20.30;93929.00;;;;10416027;28;46371;-60
2022/03/06 20:51:00;;;;;;;4.53;2.72;;;17.90;23.10;20.30;93929.00;;;;10415796;28;46116;-60
2022/03/06 20:56:01;;;;;;;4.13;2.80;;;17.90;23.10;20.30;93946.00;;;;10398489;28;46999;-60
2022/03/06 21:01:02;;;;;;;3.53;2.45;;;17.90;23.10;20.30;93937.00;;;;10400325;28;46490;-60
2022/03/06 21:06:03;;;;;;;4.57;2.95;;;17.90;23.10;20.30;93943.00;;;;10399887;28;45627;-60
2022/03/06 21:11:05;;;;;;;3.58;2.60;;;17.90;23.10;20.30;93954.00;;;;10398602;28;47727;-60
2022/03/06 21:16:06;;;;;;;4.13;2.75;;;17.90;23.10;20.30;93957.00;;;;10399340;28;45276;-60
2022/03/06 21:21:06;;;;;;;4.78;2.80;;;17.90;23.10;20.30;93967.00;;;;10415242;28;45318;-60
2022/03/06 21:26:08;;;;;;;4.03;2.75;;;17.90;23.10;20.30;93966.00;;;;10414619;28;45220;-60
2022/03/06 21:31:08;;;;;;;3.65;2.67;;;17.80;23.10;20.30;93956.00;;;;10399176;28;45515;-60
2022/03/06 21:36:09;;;;;;;4.47;3.03;;;17.80;23.10;20.30;93969.00;;;;10398405;28;45193;-60
2022/03/06 21:41:10;;;;;;;3.80;2.80;;;17.80;23.10;20.30;93961.00;;;;10397615;28;47051;-60
2022/03/06 21:46:11;;;;;;;3.92;2.72;;;17.80;23.00;20.30;93961.00;;;;10398370;28;45168;-60
2022/03/06 21:51:15;;;;;;;4.32;2.90;;;17.80;23.10;20.30;93976.00;;;;10398805;28;45533;-60
2022/03/06 21:56:16;;;;;;;3.40;2.70;;;17.80;23.10;20.30;93981.00;;;;10396638;28;45203;-60
2022/03/06 22:01:16;;;;;;;3.58;2.55;;;17.80;23.10;20.20;93983.00;;;;10398061;28;45408;-60
2022/03/06 22:06:17;;;;;;;4.95;3.08;;;17.80;23.10;20.20;93971.00;;;;10396084;28;48192;-60